Time;durP1;ratioP1;P1;durP2;ratioP2;P2;SDS_P1;SDS_P2;PMS_P1;PMS_P2;Temp;Humidity;BMP_temperature;BMP_pressure;BME280_temperature;BME280_humidity;BME280_pressure;Samples;Min_cycle;Max_cycle;Signal;HPM_P1;HPM_P2
2022/05/29 00:01:36;;;;;;;;;;;;;;;11.04;100.00;100005.69;10372469;28;19936;-66
2022/05/29 00:06:40;;;;;;;;;;;;;;;11.12;100.00;100008.13;10372696;28;20357;-63
2022/05/29 00:11:45;;;;;;;;;;;;;;;11.15;100.00;100014.13;10372002;28;19925;-64
2022/05/29 00:16:48;;;;;;;;;;;;;;;10.99;100.00;100017.84;10371995;28;19926;-64
2022/05/29 00:21:52;;;;;;;;;;;;;;;10.91;100.00;100011.94;10371093;28;19925;-65
2022/05/29 00:26:56;;;;;;;;;;;;;;;10.89;100.00;100011.13;10371679;28;19926;-66
2022/05/29 00:32:01;;;;;;;;;;;;;;;10.92;100.00;100015.41;10371561;28;19937;-64
2022/05/29 00:37:06;;;;;;;6.67;2.37;;;;;;;11.16;100.00;100023.66;10371318;28;19926;-63
2022/05/29 00:42:13;;;;;;;;;;;;;;;10.99;100.00;100017.84;10371646;28;20156;-68
2022/05/29 00:47:17;;;;;;;;;;;;;;;11.00;100.00;100018.72;10371424;28;19921;-64
2022/05/29 00:52:22;;;;;;;;;;;;;;;11.00;100.00;100017.00;10371329;28;19947;-67
2022/05/29 00:57:29;;;;;;;;;;;;;;;11.14;100.00;100017.63;10370956;28;19921;-67
2022/05/29 01:02:32;;;;;;;;;;;;;;;11.17;100.00;100017.56;10370612;28;20254;-66
2022/05/29 01:07:37;;;;;;;;;;;;;;;11.23;100.00;100007.03;10370741;28;19921;-66
2022/05/29 01:12:47;;;;;;;;;;;;;;;11.03;100.00;100008.28;10371018;28;20310;-62
2022/05/29 01:17:57;;;;;;;;;;;;;;;10.87;100.00;100005.09;10370431;28;19921;-64
2022/05/29 01:23:15;;;;;;;;;;;;;;;10.85;100.00;100011.22;10370425;28;19921;-64
2022/05/29 01:28:33;;;;;;;;;;;;;;;10.92;100.00;100013.69;10403015;28;19925;-62
2022/05/29 01:33:39;;;;;;;;;;;;;;;11.05;100.00;100015.19;10372435;28;20254;-65
2022/05/29 01:38:44;;;;;;;;;;;;;;;11.28;100.00;100019.97;10377202;28;20330;-64
2022/05/29 01:43:51;;;;;;;;;;;;;;;11.08;100.00;100016.88;10376659;28;19921;-67
2022/05/29 01:48:58;;;;;;;;;;;;;;;11.10;100.00;100015.06;10376869;28;19922;-62
2022/05/29 01:54:04;;;;;;;;;;;;;;;11.08;100.00;100009.09;10376666;28;19921;-66
2022/05/29 01:59:11;;;;;;;;;;;;;;;11.19;100.00;100008.00;10376497;28;19926;-65
2022/05/29 02:04:17;;;;;;;;;;;;;;;11.25;100.00;99999.25;10375877;28;19932;-67
2022/05/29 02:09:21;;;;;;;;;;;;;;;11.09;100.00;100006.44;10375957;28;19922;-66
2022/05/29 02:14:28;;;;;;;;;;;;;;;11.10;100.00;99996.91;10375712;28;20318;-64
2022/05/29 02:19:33;;;;;;;;;;;;;;;11.07;100.00;100005.63;10375699;28;19928;-66
2022/05/29 02:24:38;;;;;;;;;;;;;;;11.08;100.00;100011.69;10375726;28;20242;-65
2022/05/29 02:29:43;;;;;;;;;;;;;;;10.99;100.00;100015.25;10375744;28;19922;-66
2022/05/29 02:34:52;;;;;;;;;;;;;;;10.88;100.00;100011.16;10375296;28;19960;-63
2022/05/29 02:40:01;;;;;;;;;;;;;;;10.85;100.00;100014.66;10375146;28;19922;-65
2022/05/29 02:45:08;;;;;;;;;;;;;;;10.91;100.00;100009.34;10374237;28;19931;-64
2022/05/29 02:50:26;;;;;;;;;;;;;;;10.89;100.00;100010.28;10374950;28;19921;-63
2022/05/29 02:55:29;;;;;;;;;;;;;;;10.91;100.00;100008.50;10376237;28;19932;-63
2022/05/29 03:00:39;;;;;;;;;;;;;;;11.21;100.00;100016.63;10374444;28;19925;-64
2022/05/29 03:05:50;;;;;;;;;;;;;;;11.15;100.00;100015.84;10374353;28;20234;-64
2022/05/29 03:10:56;;;;;;;;;;;;;;;11.15;100.00;100029.69;10374242;28;19921;-65
2022/05/29 03:16:06;;;;;;;;;;;;;;;11.12;100.00;100032.38;10374016;28;19925;-65
2022/05/29 03:21:12;;;;;;;;;;;;;;;11.18;100.00;100034.84;10373750;28;19925;-66
2022/05/29 03:26:20;;;;;;;;;;;;;;;11.34;100.00;100044.06;10373382;28;20365;-65
2022/05/29 03:31:26;;;;;;;;;;;;;;;11.14;100.00;100035.78;10373689;28;20242;-64
2022/05/29 03:36:29;;;;;;;;;;;;;;;11.04;100.00;100035.97;10373663;28;20372;-63
2022/05/29 03:41:39;;;;;;;;;;;;;;;11.25;100.00;100040.81;10373101;28;19921;-66
2022/05/29 03:46:44;;;;;;;;;;;;;;;11.11;100.00;100037.59;10372722;28;19921;-63
2022/05/29 03:51:48;;;;;;;;;;;;;;;11.18;100.00;100034.84;10372892;28;20008;-62
2022/05/29 03:56:51;;;;;;;;;;;;;;;11.18;100.00;100049.59;10371352;28;19932;-63
2022/05/29 04:01:55;;;;;;;;;;;;;;;11.05;100.00;100054.13;10372289;28;19932;-64
2022/05/29 04:07:01;;;;;;;;;;;;;;;11.17;100.00;100051.31;10372326;28;20031;-64
2022/05/29 04:12:05;;;;;;;;;;;;;;;11.24;100.00;100050.31;10372220;28;20348;-62
2022/05/29 04:17:10;;;;;;;;;;;;;;;11.35;100.00;100053.59;10372193;28;19921;-66
2022/05/29 04:22:15;;;;;;;;;;;;;;;11.57;100.00;100054.91;10371850;28;20261;-63
2022/05/29 04:27:18;;;;;;;;;;;;;;;11.51;100.00;100062.81;10371751;28;19921;-64
2022/05/29 04:37:42;;;;;;;;;;;;;;;11.44;100.00;100074.19;10371842;28;20247;-63
2022/05/29 04:42:45;;;;;;;;;;;;;;;11.54;100.00;100074.91;10371327;28;19921;-64
2022/05/29 04:47:50;;;;;;;;;;;;;;;11.43;100.00;100082.91;10371142;28;20253;-63
2022/05/29 04:52:53;;;;;;;;;;;;;;;11.28;100.00;100075.38;10371127;28;19921;-65
2022/05/29 04:57:56;;;;;;;;;;;;;;;11.50;100.00;100088.84;10370871;28;20262;-63
2022/05/29 05:03:01;;;;;;;;;;;;;;;11.62;100.00;100073.00;10370859;28;19921;-62
2022/05/29 05:08:04;;;;;;;;;;;;;;;11.77;100.00;100066.72;10372274;28;19928;-68
2022/05/29 05:13:08;;;;;;;;;;;;;;;11.64;100.00;100071.28;10377871;28;20246;-64
2022/05/29 05:18:13;;;;;;;;;;;;;;;11.60;100.00;100070.44;10377799;28;19981;-61
2022/05/29 05:23:16;;;;;;;;;;;;;;;11.69;100.00;100072.03;10377568;28;20250;-66
2022/05/29 05:28:19;;;;;;;;;;;;;;;11.93;100.00;100073.28;10377475;28;19921;-63
2022/05/29 05:33:24;;;;;;;;;;;;;;;11.90;100.00;100086.38;10377446;28;19947;-63
2022/05/29 05:38:27;;;;;;;;;;;;;;;12.06;100.00;100074.78;10377022;28;19999;-65
2022/05/29 05:43:31;;;;;;;;;;;;;;;12.04;100.00;100087.81;10377020;28;19932;-64
2022/05/29 05:48:38;;;;;;;;;;;;;;;12.09;100.00;100079.91;10376462;28;20239;-65
2022/05/29 05:53:42;;;;;;;;;;;;;;;12.19;100.00;100091.84;10376776;28;19922;-65
2022/05/29 05:58:45;;;;;;;;;;;;;;;12.16;100.00;100086.69;10376476;28;19922;-66
2022/05/29 06:03:50;;;;;;;;;;;;;;;12.23;100.00;100101.28;10375882;28;19921;-64
2022/05/29 06:08:53;;;;;;;;;;;;;;;12.27;100.00;100101.19;10375996;28;19971;-66
2022/05/29 06:13:56;;;;;;;;;;;;;;;12.42;100.00;100098.28;10376052;28;20444;-65
2022/05/29 06:19:02;;;;;;;;;;;;;;;12.45;100.00;100103.41;10374701;28;20345;-63
2022/05/29 06:24:06;;;;;;;;;;;;;;;12.52;100.00;100101.53;10375659;28;19932;-63
2022/05/29 06:29:09;;;;;;;;;;;;;;;12.58;100.00;100111.81;10375520;28;19932;-61
2022/05/29 06:34:14;;;;;;;;;;;;;;;12.65;99.18;100118.56;10375691;28;19990;-62
2022/05/29 06:39:17;;;;;;;;;;;;;;;12.75;97.82;100127.91;10374986;28;19921;-68
2022/05/29 06:44:20;;;;;;;;;;;;;;;12.82;96.50;100135.53;10374953;28;19931;-70
2022/05/29 06:49:24;;;;;;;;;;;;;;;12.78;96.48;100135.66;10374598;28;19931;-65
2022/05/29 06:54:28;;;;;;;;;;;;;;;12.92;95.54;100130.13;10374914;28;19922;-67
2022/05/29 06:59:31;;;;;;;;;;;;;;;13.01;95.41;100133.34;10374575;28;20274;-63
2022/05/29 07:09:55;;;;;;;;;;;;;;;13.12;93.51;100146.16;10374332;28;19921;-66
2022/05/29 07:15:01;;;;;;;;;;;;;;;13.11;92.48;100136.66;10374053;28;20004;-64
2022/05/29 07:20:06;;;;;;;;;;;;;;;13.36;90.85;100148.19;10374039;28;19931;-66
2022/05/29 07:25:10;;;;;;;;;;;;;;;13.57;90.06;100145.91;10373859;28;19921;-66
2022/05/29 07:30:13;;;;;;;;;;;;;;;13.35;90.10;100149.94;10373198;28;20310;-66
2022/05/29 07:35:18;;;;;;;;;;;;;;;13.50;89.15;100161.72;10373330;28;19922;-67
2022/05/29 07:40:21;;;;;;;;;;;;;;;13.61;87.23;100155.38;10373409;28;19921;-64
2022/05/29 07:45:24;;;;;;;;;;;;;;;13.86;88.30;100159.03;10373180;28;19932;-65
2022/05/29 07:50:28;;;;;;;;;;;;;;;13.74;87.51;100161.09;10372773;28;19921;-63
2022/05/29 07:55:32;;;;;;;;;;;;;;;13.83;87.90;100172.16;10372784;28;19936;-68
2022/05/29 08:00:35;;;;;;;;;;;;;;;13.98;87.49;100163.06;10372031;28;20010;-66
2022/05/29 08:05:41;;;;;;;;;;;;;;;14.25;85.81;100166.69;10372465;28;19921;-69
2022/05/29 08:10:45;;;;;;;;;;;;;;;14.15;84.30;100184.31;10372320;28;19921;-65
2022/05/29 08:15:48;;;;;;;;;;;;;;;14.17;84.46;100185.16;10372177;28;19927;-63
2022/05/29 08:20:53;;;;;;;;;;;;;;;14.24;85.29;100171.03;10372184;28;19981;-65
2022/05/29 08:31:19;;;;;;;;;;;;;;;14.55;82.26;100176.25;10372104;28;19921;-67
2022/05/29 08:36:26;;;;;;;;;;;;;;;14.47;80.62;100183.47;10371536;28;20196;-65
2022/05/29 08:41:34;;;;;;;;;;;;;;;14.30;81.43;100175.25;10371914;28;19929;-65
2022/05/29 08:46:38;;;;;;;;;;;;;;;14.30;82.81;100186.56;10378324;28;19928;-65
2022/05/29 08:51:54;;;;;;;;;;;;;;;14.42;80.29;100177.53;10378582;28;19959;-67
2022/05/29 08:57:03;;;;;;;;;;;;;;;14.66;77.95;100185.53;10378815;28;19921;-65
2022/05/29 09:02:13;;;;;;;;;;;;;;;14.68;77.10;100178.50;10378416;28;19922;-64
2022/05/29 09:07:19;;;;;;;;;;;;;;;14.94;74.23;100178.53;10378117;28;19932;-64
2022/05/29 09:12:25;;;;;;;;;;;;;;;14.93;74.43;100173.38;10377804;28;19921;-66
2022/05/29 09:17:31;;;;;;;;;;;;;;;15.03;74.87;100174.78;10378139;28;19921;-66
2022/05/29 09:22:38;;;;;;;;;;;;;;;15.07;70.34;100181.63;10377914;28;19921;-67
2022/05/29 09:27:44;;;;;;;;;;;;;;;15.53;68.75;100171.44;10377814;28;20289;-70
2022/05/29 09:32:49;;;;;;;;;;;;;;;15.85;69.25;100158.13;10377606;28;19921;-67
2022/05/29 09:37:57;;;;;;;;;;;;;;;16.13;68.48;100160.63;10377110;28;19957;-65
2022/05/29 09:43:13;;;;;;;;;;;;;;;16.58;66.32;100168.59;10376731;28;19922;-67
2022/05/29 09:53:47;;;;;;;;;;;;;;;17.61;61.92;100153.09;10376839;28;19921;-67
2022/05/29 09:58:52;;;;;;;;;;;;;;;17.16;61.61;100166.31;10376481;28;20356;-64
2022/05/29 10:03:56;;;;;;;;;;;;;;;16.92;60.15;100172.50;10376397;28;19921;-65
2022/05/29 10:09:15;;;;;;;;;;;;;;;16.97;62.33;100172.31;10375890;28;20258;-65
2022/05/29 10:14:24;;;;;;;;;;;;;;;16.77;62.28;100173.09;10376053;28;19939;-68
2022/05/29 10:19:35;;;;;;;;;;;;;;;16.31;63.16;100180.09;10376245;28;19973;-67
2022/05/29 10:24:40;;;;;;;;;;;;;;;16.04;64.58;100187.16;10375618;28;19932;-66
2022/05/29 10:29:43;;;;;;;;;;;;;;;16.00;64.90;100190.75;10374734;28;19921;-65
2022/05/29 10:34:46;;;;;;;;;;;;;;;16.13;65.85;100179.81;10374981;28;19939;-67
2022/05/29 10:39:51;;;;;;;;;;;;;;;16.79;64.27;100187.00;10375144;28;19922;-66
2022/05/29 10:44:58;;;;;;;;;;;;;;;17.17;63.54;100182.91;10375271;28;19931;-63
2022/05/29 10:50:06;;;;;;;;;;;;;;;18.76;61.45;100161.13;10374852;28;20364;-63
2022/05/29 10:55:40;;;;;;;;;;;;;;;19.00;59.01;100170.50;10374435;28;20253;-67
2022/05/29 11:00:52;;;;;;;;;;;;;;;19.09;58.66;100170.91;10374824;28;19925;-65
2022/05/29 11:06:13;;;;;;;;;;;;;;;18.48;58.66;100177.31;10374130;28;19930;-67
2022/05/29 11:11:24;;;;;;;;;;;;;;;18.47;59.88;100166.84;10374018;28;19921;-67
2022/05/29 11:16:33;;;;;;;;;;;;;;;18.52;59.62;100176.22;10373930;28;20070;-64
2022/05/29 11:21:52;;;;;;;;;;;;;;;18.87;56.41;100171.97;10373648;28;20016;-65
2022/05/29 11:27:13;;;;;;;;;;;;;;;18.25;54.96;100183.56;10373749;28;19979;-68
2022/05/29 11:32:23;;;;;;;;;;;;;;;18.34;55.63;100174.41;10373572;28;19932;-64
2022/05/29 11:37:34;;;;;;;;;;;;;;;19.10;54.76;100169.13;10372842;28;20322;-69
2022/05/29 11:42:46;;;;;;;;;;;;;;;20.44;53.75;100149.97;10358244;28;20000;-67
2022/05/29 11:53:17;;;;;;;;;;;;;;;19.88;55.42;100149.41;10372783;28;20004;-65
2022/05/29 11:58:25;;;;;;;;;;;;;;;19.39;55.66;100144.91;10372475;28;19931;-67
2022/05/29 12:03:36;;;;;;;;;;;;;;;20.83;51.69;100124.97;10372448;28;19922;-64
2022/05/29 12:08:46;;;;;;;;;;;;;;;21.72;48.43;100118.88;10372370;28;19921;-65
2022/05/29 12:13:55;;;;;;;;;;;;;;;20.12;53.16;100124.41;10372108;28;20012;-64
2022/05/29 12:19:00;;;;;;;;;;;;;;;19.27;53.51;100127.91;10371072;28;19931;-65
2022/05/29 12:24:09;;;;;;;;;;;;;;;20.02;49.70;100112.66;10371931;28;19925;-68
2022/05/29 12:29:16;;;;;;;;;;;;;;;21.12;48.10;100113.66;10371657;28;20235;-68
2022/05/29 12:34:25;;;;;;;;;;;;;;;21.52;48.76;100110.41;10371715;28;19972;-67
2022/05/29 12:39:35;;;;;;;;;;;;;;;21.22;49.23;100102.50;10371467;28;20342;-63
2022/05/29 12:44:56;;;;;;;;;;;;;;;21.66;47.30;100121.00;10370751;28;19925;-66
2022/05/29 12:50:09;;;;;;;;;;;;;;;20.71;48.54;100125.66;10370543;28;20024;-67
2022/05/29 12:55:20;;;;;;;;;;;;;;;20.24;49.76;100136.13;10371120;28;19978;-69
2022/05/29 13:00:38;;;;;;;;;;;;;;;19.25;51.69;100147.31;10371096;28;19936;-71
2022/05/29 13:06:00;;;;;;;;;;;;;;;18.51;53.15;100145.63;10359930;28;19921;-65
2022/05/29 13:11:05;;;;;;;;;;;;;;;18.66;53.43;100147.53;10370656;28;19925;-65
2022/05/29 13:16:24;;;;;;;;;;;;;;;18.15;55.25;100144.63;10370446;28;19922;-63
2022/05/29 13:21:29;;;;;;;;;;;;;;;18.49;54.98;100143.97;10370241;28;20016;-66
2022/05/29 13:26:32;;;;;;;;;;;;;;;20.17;48.46;100151.41;10370786;28;20050;-66
2022/05/29 13:31:57;;;;;;;;;;;;;;;20.98;44.50;100146.13;10375141;28;20418;-68
2022/05/29 13:37:06;;;;;;;;;;;;;;;20.92;43.79;100145.56;10377318;28;19922;-63
2022/05/29 13:42:36;;;;;;;;;;;;;;;20.29;45.29;100161.31;10376634;28;19921;-67
2022/05/29 13:47:47;;;;;;;;;;;;;;;19.49;48.40;100151.41;10376668;28;19921;-63
2022/05/29 13:52:53;;;;;;;;;;;;;;;19.78;49.64;100142.91;10376412;28;19921;-65
2022/05/29 14:08:51;;;;;;;;;;;;;;;22.00;46.46;100144.53;10375740;28;19921;-66
2022/05/29 14:13:54;;;;;;;;;;;;;;;21.82;46.14;100147.41;10375805;28;19931;-67
2022/05/29 14:19:00;;;;;;;;;;;;;;;21.51;45.87;100145.69;10375676;28;19921;-67
2022/05/29 14:24:13;;;;;;;;;;;;;;;20.26;46.41;100132.47;10375571;28;19928;-66
2022/05/29 14:29:26;;;;;;;;;;;;;;;20.84;46.01;100134.59;10375235;28;20368;-67
2022/05/29 14:34:35;;;;;;;;;;;;;;;21.83;45.30;100139.38;10375254;28;19921;-65
2022/05/29 14:39:41;;;;;;;;;;;;;;;20.82;45.23;100139.09;10374372;28;19947;-67
2022/05/29 14:44:45;;;;;;;;;;;;;;;19.82;46.43;100148.88;10374448;28;19925;-67
2022/05/29 14:49:54;;;;;;;;;;;;;;;19.56;48.78;100142.28;10374312;28;19921;-66
2022/05/29 14:55:05;;;;;;;;;;;;;;;19.49;48.93;100140.88;10374123;28;20340;-63
2022/05/29 15:00:20;;;;;;;;;;;;;;;19.08;49.69;100137.63;10374823;28;20353;-65
2022/05/29 15:05:25;;;;;;;;;;;;;;;18.90;49.33;100145.53;10374135;28;19935;-66
2022/05/29 15:10:33;;;;;;;;;;;;;;;19.09;50.13;100147.22;10373891;28;19922;-66
2022/05/29 15:15:44;;;;;;;;;;;;;;;18.90;50.02;100143.75;10374413;28;19970;-69
2022/05/29 15:26:13;;;;;;;;;;;;;;;19.59;48.95;100139.50;10373666;28;19969;-66
2022/05/29 15:31:20;;;;;;;;;;;;;;;19.79;47.64;100139.34;10373755;28;19922;-64
2022/05/29 15:36:26;;;;;;;;;;;;;;;19.72;48.61;100137.09;10373382;28;20350;-68
2022/05/29 15:41:38;;;;;;;;;;;;;;;19.31;49.16;100144.44;10373360;28;20342;-64
2022/05/29 15:46:53;;;;;;;;;;;;;;;18.83;50.63;100138.84;10372900;28;19921;-66
2022/05/29 15:51:59;;;;;;;;;;;;;;;18.87;51.95;100135.16;10373151;28;19921;-68
2022/05/29 15:57:09;;;;;;;;;;;;;;;19.10;51.28;100130.50;10373208;28;19921;-66
2022/05/29 16:02:14;;;;;;;;;;;;;;;19.06;49.50;100139.47;10372308;28;20253;-67
2022/05/29 16:07:36;;;;;;;;;;;;;;;19.21;51.67;100144.00;10372635;28;20016;-68
2022/05/29 16:12:47;;;;;;;;;;;;;;;18.69;51.75;100149.19;10372636;28;19921;-68
2022/05/29 16:17:56;;;;;;;;;;;;;;;18.25;49.54;100144.16;10372186;28;20261;-70
2022/05/29 16:23:05;;;;;;;;;;;;;;;18.12;51.20;100140.34;10371755;28;19981;-66
2022/05/29 16:28:18;;;;;;;;;;;;;;;17.73;50.99;100143.84;10371823;28;19932;-66
2022/05/29 16:33:23;;;;;;;;;;;;;;;17.60;52.34;100154.00;10371457;28;19921;-67
2022/05/29 16:49:29;;;;;;;;;;;;;;;17.26;55.90;100153.66;10349704;28;20262;-69
2022/05/29 16:54:41;;;;;;;;;;;;;;;17.11;56.05;100147.28;10330942;28;19922;-66
2022/05/29 16:59:47;;;;;;;;;;;;;;;17.15;57.46;100140.97;10331049;28;19932;-66
2022/05/29 17:04:58;;;;;;;;;;;;;;;17.05;58.95;100146.66;10333188;28;19921;-65
2022/05/29 17:10:15;;;;;;;;;;;;;;;16.98;60.09;100142.59;10337473;28;19925;-69
2022/05/29 17:15:21;;;;;;;;;;;;;;;16.86;61.05;100141.28;10336911;28;19921;-66
2022/05/29 17:20:25;;;;;;;;;;;;;;;16.79;61.75;100137.19;10335720;28;19926;-68
2022/05/29 17:25:32;;;;;;;;;;;;;;;16.74;62.74;100139.13;10335853;28;20323;-66
2022/05/29 17:30:40;;;;;;;;;;;;;;;16.63;63.71;100128.22;10335352;28;19921;-66
2022/05/29 17:35:45;;;;;;;;;;;;;;;16.53;65.46;100132.09;10335241;28;20335;-65
2022/05/29 17:41:00;;;;;;;;;;;;;;;16.46;64.27;100145.47;10335284;28;19922;-66
2022/05/29 17:46:06;;;;;;;;;;;;;;;16.36;65.96;100137.06;10334949;28;20016;-65
2022/05/29 17:51:15;;;;;;;;;;;;;;;16.26;68.56;100146.19;10334634;28;19921;-63
2022/05/29 17:56:19;;;;;;;;;;;;;;;16.12;70.92;100145.81;10334507;28;20267;-69
2022/05/29 18:01:23;;;;;;;;;;;;;;;16.01;70.17;100146.19;10334246;28;19932;-67
2022/05/29 18:06:26;;;;;;;;;;;;;;;15.92;71.78;100143.06;10334259;28;19929;-64
2022/05/29 18:11:30;;;;;;;;;;;;;;;15.78;71.58;100137.47;10334043;28;19948;-66
2022/05/29 18:16:35;;;;;;;;;;;;;;;15.68;73.46;100139.56;10332687;28;19932;-68
2022/05/29 18:21:38;;;;;;;;;;;;;;;15.60;74.46;100141.56;10333790;28;19932;-66
2022/05/29 18:26:41;;;;;;;;;;;;;;;15.50;73.76;100134.06;10333629;28;19948;-64
2022/05/29 18:31:45;;;;;;;;;;;;;;;15.44;74.07;100147.38;10358792;28;19921;-69
2022/05/29 18:36:48;;;;;;;;;;;;;;;15.46;73.41;100164.69;10373871;28;19921;-65
2022/05/29 18:41:52;;;;;;;;;;;;;;;15.41;74.70;100158.75;10373675;28;19922;-65
2022/05/29 18:46:57;;;;;;;;;;;;;;;15.32;75.56;100161.66;10373491;28;19932;-66
2022/05/29 18:52:01;;;;;;;;;;;;;;;15.27;77.18;100163.59;10373257;28;20353;-65
2022/05/29 18:57:05;;;;;;;;;;;;;;;15.30;78.41;100162.63;10373140;28;19921;-66
2022/05/29 19:02:09;;;;;;;;;;;;;;;15.25;80.42;100152.31;10372711;28;20004;-65
2022/05/29 19:07:13;;;;;;;;;;;;;;;15.23;81.19;100161.09;10373297;28;19983;-67
2022/05/29 19:12:16;;;;;;;;;;;;;;;15.20;80.50;100151.59;10372356;28;20235;-69
2022/05/29 19:22:42;;;;;;;;;;;;;;;15.09;81.66;100153.69;10372648;28;19921;-67
2022/05/29 19:27:47;;;;;;;;;;;;;;;14.90;84.28;100142.97;10372550;28;19925;-67
2022/05/29 19:32:53;;;;;;;;;;;;;;;14.87;85.36;100142.22;10371293;28;20253;-64
2022/05/29 19:37:56;;;;;;;;;;;;;;;14.84;87.21;100158.00;10372034;28;19939;-67
2022/05/29 19:42:59;;;;;;;;;;;;;;;14.61;87.83;100152.59;10371758;28;20249;-67
2022/05/29 19:48:04;;;;;;;;;;;;;;;14.69;87.76;100142.75;10371712;28;20012;-65
2022/05/29 19:53:07;;;;;;;;;;;;;;;14.69;86.08;100132.31;10371346;28;19933;-64
2022/05/29 19:58:10;;;;;;;;;;;;;;;14.74;87.70;100126.03;10371076;28;19921;-66
2022/05/29 20:03:14;;;;;;;;;;;;;;;14.68;88.34;100118.41;10371128;28;19977;-67
2022/05/29 20:08:19;;;;;;;;;;;;;;;14.66;88.35;100124.56;10370650;28;20342;-66
2022/05/29 20:13:24;;;;;;;;;;;;;;;14.54;89.05;100119.72;10371033;28;19926;-64
2022/05/29 20:18:29;;;;;;;;;;;;;;;14.55;89.81;100126.63;10371205;28;20020;-67
2022/05/29 20:23:33;;;;;;;;;;;;;;;14.51;89.09;100122.44;10370744;28;19930;-64
2022/05/29 20:28:36;;;;;;;;;;;;;;;14.48;88.17;100130.38;10370610;28;19929;-69
2022/05/29 20:33:40;;;;;;;;;;;;;;;14.45;90.67;100138.25;10370441;28;19929;-69
2022/05/29 20:38:44;;;;;;;;;;;;;;;14.39;90.50;100148.91;10369802;28;20358;-67
2022/05/29 20:43:47;;;;;;;;;;;;;;;14.29;90.62;100139.63;10370108;28;19936;-65
2022/05/29 20:48:52;;;;;;;;;;;;;;;14.22;91.85;100136.28;10370123;28;19926;-66
2022/05/29 20:53:55;;;;;;;;;;;;;;;14.17;92.27;100143.38;10370095;28;19926;-66
2022/05/29 20:58:58;;;;;;;;;;;;;;;13.99;94.26;100153.47;10370339;28;20365;-65
2022/05/29 21:04:03;;;;;;;;;;;;;;;14.11;95.21;100146.19;10369538;28;19925;-69
2022/05/29 21:09:07;;;;;;;;;;;;;;;14.04;95.11;100141.16;10369470;28;20024;-66
2022/05/29 21:14:11;;;;;;;;;;;;;;;14.04;96.58;100146.38;10369358;28;19926;-68
2022/05/29 21:19:15;;;;;;;;;;;;;;;13.96;97.03;100141.38;10369248;28;19925;-68
2022/05/29 21:24:19;;;;;;;;;;;;;;;13.93;97.62;100148.44;10369275;28;19926;-67
2022/05/29 21:29:23;;;;;;;;;;;;;;;13.89;97.75;100142.47;10369212;28;19930;-66
2022/05/29 21:34:27;;;;;;;;;;;;;;;13.84;98.01;100145.16;10369254;28;19965;-67
2022/05/29 21:39:30;;;;;;;;;;;;;;;13.79;97.72;100138.34;10369009;28;19936;-66
2022/05/29 21:44:33;;;;;;;;;;;;;;;13.82;98.24;100131.31;10368960;28;19925;-65
2022/05/29 21:49:38;;;;;;;;;;;;;;;13.73;98.44;100136.78;10370770;28;19926;-68
2022/05/29 21:54:41;;;;;;;;;;;;;;;13.65;98.83;100123.06;10376587;28;19927;-66
2022/05/29 21:59:44;;;;;;;;;;;;;;;13.56;98.38;100123.31;10376554;28;19932;-65
2022/05/29 22:04:48;;;;;;;;;;;;;;;13.58;99.59;100115.47;10376605;28;19925;-66
2022/05/29 22:09:51;;;;;;;;;;;;;;;13.53;99.30;100120.78;10376076;28;19936;-67
2022/05/29 22:14:57;;;;;;;;;;;;;;;13.51;99.66;100103.50;10376063;28;19925;-68
2022/05/29 22:20:02;;;;;;;;;;;;;;;13.57;97.83;100108.53;10376390;28;19951;-63
2022/05/29 22:25:06;;;;;;;;;;;;;;;13.57;97.53;100104.19;10376776;28;19926;-65
2022/05/29 22:30:10;;;;;;;;;;;;;;;13.58;97.18;100107.66;10375272;28;20301;-65
2022/05/29 22:35:15;;;;;;;;;;;;;;;13.53;99.13;100102.53;10375308;28;19925;-65
2022/05/29 22:40:22;;;;;;;;;;;;;;;13.50;98.43;100102.63;10375161;28;20075;-68
2022/05/29 22:45:25;;;;;;;;;;;;;;;13.50;99.11;100109.59;10375218;28;19936;-66
2022/05/29 22:50:33;;;;;;;;;;;;;;;13.49;98.96;100095.72;10374845;28;19930;-63
2022/05/29 22:55:36;;;;;;;;;;;;;;;13.58;99.11;100100.66;10374876;28;19925;-68
2022/05/29 23:00:40;;;;;;;;;;;;;;;13.52;99.51;100103.44;10374151;28;19925;-65
2022/05/29 23:05:44;;;;;;;;;;;;;;;13.57;99.72;100091.13;10374781;28;19932;-67
2022/05/29 23:10:47;;;;;;;;;;;;;;;13.43;100.00;100087.16;10374869;28;19936;-69
2022/05/29 23:15:51;;;;;;;;;;;;;;;13.34;100.00;100090.88;10374121;28;20016;-67
2022/05/29 23:20:55;;;;;;;;;;;;;;;13.37;100.00;100087.34;10373955;28;19990;-68
2022/05/29 23:25:58;;;;;;;;;;;;;;;13.27;100.00;100083.25;10374008;28;19940;-65
2022/05/29 23:31:02;;;;;;;;;;;;;;;13.17;100.00;100071.34;10374135;28;20338;-65
2022/05/29 23:36:07;;;;;;;;;;;;;;;13.21;100.00;100072.97;10373557;28;19925;-66
2022/05/29 23:46:38;;;;;;;;;;;;;;;13.22;100.00;100059.91;10373217;28;19926;-69
2022/05/29 23:51:42;;;;;;;;;;;;;;;13.21;100.00;100063.41;10373135;28;19962;-66
2022/05/29 23:56:45;;;;;;;;;;;;;;;13.25;100.00;100062.47;10373016;28;19932;-65
